East Putney, Vermont
Current Conditions -  °F | °C
As of 8:35 AM on Saturday 01 Nov 2014 (Local Time) from KEEN Reporting Station
Broken Clouds Broken Clouds  
Wind Chill: 36°   Ceiling: 3100
Heat Index: 39°   Visibility: 10mi
Dew Point: 27°   Wind: 5mph
Humidity: 61%   Direction: 340°NNW
Pressure: 29.95"   Gusts: NA
Location:  43.041°N, 72.534°W
Report Text: KEEN 011235Z AUTO 34004KT 10SM BKN031 BKN100 04/M03 A2995 RMK AO1
Loading
Personal Weather Stations






























Interactive Weather Map
Tropical Storm Tracking
New forecast layout! Learn more

10-Day Weather Forecast

Advertisements
Track Severe Weather on mobile